Time;durP1;ratioP1;P1;durP2;ratioP2;P2;SDS_P1;SDS_P2;PMS_P1;PMS_P2;Temp;Humidity;BMP_temperature;BMP_pressure;BME280_temperature;BME280_humidity;BME280_pressure;Samples;Min_cycle;Max_cycle;Signal;HPM_P1;HPM_P2
2023/10/17 00:01:13;;;;;;;12.13;1.40;;;;;;;13.04;90.68;101397.25;5073407;28;20032;-75
2023/10/17 00:03:38;;;;;;;6.38;1.10;;;;;;;13.16;90.97;101416.44;5054928;28;20028;-75
2023/10/17 00:06:06;;;;;;;9.43;1.10;;;;;;;13.21;91.11;101424.81;5071392;28;20028;-76
2023/10/17 00:08:33;;;;;;;10.20;1.00;;;;;;;13.20;91.36;101417.72;5072242;28;20158;-76
2023/10/17 00:11:17;;;;;;;9.32;1.50;;;;;;;13.31;91.13;101424.44;5070888;28;20029;-75
2023/10/17 00:13:59;;;;;;;7.78;1.10;;;;;;;13.19;91.99;101417.94;5074490;28;20028;-76
2023/10/17 00:16:30;;;;;;;9.98;1.42;;;;;;;13.30;91.75;101425.47;5071968;28;20028;-76
2023/10/17 00:18:57;;;;;;;4.18;0.73;;;;;;;13.26;91.60;101425.03;5070183;28;20029;-75
2023/10/17 00:21:23;;;;;;;6.13;1.00;;;;;;;13.13;91.73;101409.56;5070199;28;20078;-76
2023/10/17 00:23:51;;;;;;;10.40;1.23;;;;;;;13.29;91.38;101429.22;5069441;28;20032;-75
2023/10/17 00:26:18;;;;;;;7.70;1.00;;;;;;;13.26;91.49;101419.63;5070964;28;20036;-76
2023/10/17 00:28:45;;;;;;;8.88;1.10;;;;;;;13.43;90.33;101419.28;5071197;28;20024;-76
2023/10/17 00:31:11;;;;;;;9.90;1.15;;;;;;;13.45;89.97;101419.94;5070731;28;20024;-76
2023/10/17 00:33:41;;;;;;;10.57;1.13;;;;;;;13.36;90.43;101421.97;5069754;28;20501;-76
2023/10/17 00:36:14;;;;;;;6.90;1.10;;;;;;;13.24;91.30;101419.00;5069629;28;20487;-76
2023/10/17 00:38:43;;;;;;;5.03;0.90;;;;;;;13.25;91.01;101406.34;5070692;28;20039;-75
2023/10/17 00:41:32;;;;;;;9.30;1.10;;;;;;;13.25;90.55;101409.06;5070264;28;20522;-75
2023/10/17 00:43:58;;;;;;;13.60;1.00;;;;;;;13.19;89.61;101388.19;5057042;28;20024;-76
2023/10/17 00:46:24;;;;;;;5.68;1.02;;;;;;;13.35;89.39;101410.31;5071700;28;20077;-75
2023/10/17 00:48:50;;;;;;;5.57;1.17;;;;;;;13.43;88.89;101405.78;5071595;28;20025;-76
2023/10/17 00:51:19;;;;;;;6.93;1.27;;;;;;;13.38;89.55;101407.22;5053453;28;20033;-75
2023/10/17 00:53:46;;;;;;;4.85;0.90;;;;;;;13.41;89.96;101406.00;5071948;28;20036;-76
2023/10/17 00:56:13;;;;;;;8.40;1.13;;;;;;;13.23;90.92;101384.88;5059180;28;20052;-76
2023/10/17 00:58:42;;;;;;;8.32;1.30;;;;;;;13.38;90.30;101399.13;5076690;28;20399;-75
2023/10/17 01:01:16;;;;;;;9.82;1.13;;;;;;;13.42;90.24;101402.25;5072372;28;20029;-76
2023/10/17 01:03:45;;;;;;;8.07;1.70;;;;;;;13.43;90.14;101403.91;5054505;28;20089;-75
2023/10/17 01:06:36;;;;;;;7.53;0.93;;;;;;;13.38;90.59;101398.28;5073281;28;20081;-75
2023/10/17 01:09:17;;;;;;;9.32;1.17;;;;;;;13.46;90.74;101416.19;5073010;28;20066;-75
2023/10/17 01:11:43;;;;;;;10.18;1.65;;;;;;;13.44;90.05;101402.03;5070404;28;20112;-75
2023/10/17 01:14:09;;;;;;;5.70;0.88;;;;;;;13.43;89.91;101400.38;5053431;28;20024;-76
2023/10/17 01:16:34;;;;;;;9.82;1.27;;;;;;;13.50;89.29;101404.75;5054196;28;20041;-75
2023/10/17 01:19:05;;;;;;;11.77;1.20;;;;;;;13.41;89.09;101370.84;5070925;28;20028;-76
2023/10/17 01:21:30;;;;;;;9.65;1.17;;;;;;;13.44;89.52;101397.44;5037681;28;20024;-75
2023/10/17 01:23:56;;;;;;;7.57;1.58;;;;;;;13.40;89.20;101379.97;5053091;28;20024;-76
2023/10/17 01:26:23;;;;;;;7.28;1.55;;;;;;;13.45;88.77;101391.03;5070100;28;20402;-75
2023/10/17 01:28:51;;;;;;;10.73;1.40;;;;;;;13.45;88.19;101382.09;5053285;28;20025;-75
2023/10/17 01:31:25;;;;;;;11.65;1.48;;;;;;;13.55;89.01;101394.16;5069791;28;20499;-76
2023/10/17 01:33:55;;;;;;;9.18;1.52;;;;;;;13.50;89.59;101385.00;5071868;28;20032;-76
2023/10/17 01:36:21;;;;;;;11.38;1.45;;;;;;;13.43;89.74;101381.44;5070015;28;20029;-75
2023/10/17 01:38:50;;;;;;;9.43;1.30;;;;;;;13.43;89.97;101378.75;5036600;28;20048;-75
2023/10/17 01:41:20;;;;;;;10.20;1.30;;;;;;;13.43;90.24;101374.16;5054254;28;20135;-75
2023/10/17 01:43:47;;;;;;;10.60;1.27;;;;;;;13.50;89.27;101375.00;5069663;28;20079;-76
2023/10/17 01:46:28;;;;;;;8.55;1.27;;;;;;;13.44;90.05;101380.41;5069638;28;20020;-76
2023/10/17 01:48:54;;;;;;;10.18;1.27;;;;;;;13.44;89.34;101378.53;5054977;28;20024;-76
2023/10/17 01:51:21;;;;;;;9.82;1.13;;;;;;;13.25;90.38;101346.88;5069283;28;20056;-76
2023/10/17 01:53:50;;;;;;;8.25;1.65;;;;;;;13.49;89.23;101378.75;5070036;28;20111;-75
2023/10/17 01:56:16;;;;;;;8.80;1.30;;;;;;;13.49;89.42;101367.13;5069277;28;20063;-75
2023/10/17 01:58:49;;;;;;;10.45;1.38;;;;;;;13.34;90.69;101369.97;5070922;28;20029;-76
2023/10/17 02:01:21;;;;;;;8.38;1.40;;;;;;;13.34;90.89;101375.38;5072573;28;20032;-75
2023/10/17 02:03:47;;;;;;;9.65;1.45;;;;;;;13.42;89.96;101367.09;5072535;28;20059;-76
2023/10/17 02:06:16;;;;;;;5.13;0.95;;;;;;;13.37;89.46;101364.16;5069517;28;20028;-76
2023/10/17 02:08:43;;;;;;;11.07;1.45;;;;;;;13.43;89.21;101374.16;5069849;28;20029;-75
2023/10/17 02:11:13;;;;;;;9.52;1.13;;;;;;;13.43;89.43;101368.75;5069560;28;20028;-76
2023/10/17 02:13:41;;;;;;;11.43;1.40;;;;;;;13.35;89.14;101350.03;5069165;28;20505;-76
2023/10/17 02:16:09;;;;;;;10.68;1.50;;;;;;;13.42;89.58;101368.97;5068417;28;20445;-76
2023/10/17 02:18:34;;;;;;;11.77;1.30;;;;;;;13.36;88.85;101367.91;5068771;28;20048;-75
2023/10/17 02:21:04;;;;;;;8.65;1.70;;;;;;;13.42;87.71;101367.09;5069427;28;20068;-75
2023/10/17 02:23:39;;;;;;;6.75;1.33;;;;;;;13.38;87.85;101377.50;5056250;28;20039;-75
2023/10/17 02:26:08;;;;;;;;;;;;;;;13.38;87.37;101379.38;5072901;28;20029;-76
2023/10/17 02:28:44;;;;;;;10.02;1.38;;;;;;;13.45;86.95;101374.81;5072148;28;19966;-76
2023/10/17 02:31:12;;;;;;;10.90;1.30;;;;;;;13.48;87.32;101377.09;5073246;28;20040;-75
2023/10/17 02:33:41;;;;;;;8.77;1.67;;;;;;;13.25;88.00;101373.91;5072920;28;20040;-76
2023/10/17 02:36:09;;;;;;;8.77;1.48;;;;;;;13.15;88.08;101363.47;5056242;28;20043;-75
2023/10/17 02:38:34;;;;;;;12.20;1.83;;;;;;;13.21;88.45;101373.47;5055863;28;20487;-75
2023/10/17 02:41:01;;;;;;;10.50;1.35;;;;;;;13.33;88.07;101387.22;5055766;28;20048;-75
2023/10/17 02:43:28;;;;;;;9.93;1.83;;;;;;;13.32;87.45;101386.41;5072641;28;20024;-75
2023/10/17 02:45:54;;;;;;;16.88;2.40;;;;;;;13.21;87.10;101359.09;5056264;28;20025;-75
2023/10/17 02:48:26;;;;;;;10.43;1.73;;;;;;;13.33;86.66;101376.41;5055409;28;20028;-75
2023/10/17 02:51:03;;;;;;;9.38;1.27;;;;;;;13.33;87.57;101385.34;5056465;28;20028;-75
2023/10/17 02:53:34;;;;;;;9.77;1.70;;;;;;;13.37;88.20;101374.97;5073146;28;20395;-75
2023/10/17 02:56:18;;;;;;;8.38;1.33;;;;;;;13.34;88.76;101384.34;5057875;28;20543;-75
2023/10/17 02:58:48;;;;;;;7.90;1.43;;;;;;;13.33;88.15;101382.66;5072919;28;20033;-75
2023/10/17 03:01:14;;;;;;;5.90;0.98;;;;;;;13.21;87.42;101369.91;5071918;28;20029;-76
2023/10/17 03:03:39;;;;;;;12.00;1.95;;;;;;;13.20;88.56;101387.16;5054891;28;20032;-75
2023/10/17 03:06:05;;;;;;;9.02;1.60;;;;;;;13.20;88.98;101368.25;5072107;28;20414;-75
2023/10/17 03:08:36;;;;;;;11.27;1.60;;;;;;;13.30;89.72;101396.56;5071825;28;20037;-75
2023/10/17 03:11:02;;;;;;;12.13;1.60;;;;;;;13.49;89.44;101383.34;5071185;28;20479;-75
2023/10/17 03:13:40;;;;;;;11.40;1.40;;;;;;;13.61;88.17;101396.06;5054951;28;20024;-75
2023/10/17 03:19:05;;;;;;;11.63;2.30;;;;;;;13.43;87.91;101382.28;5067633;28;20036;-75
2023/10/17 03:21:34;;;;;;;10.50;1.55;;;;;;;13.57;86.86;101380.44;5072114;28;20449;-75
2023/10/17 03:24:06;;;;;;;7.35;1.23;;;;;;;13.36;88.00;101370.59;5071402;28;20109;-75
2023/10/17 03:26:42;;;;;;;12.32;2.20;;;;;;;13.42;87.79;101375.22;5054597;28;20024;-75
2023/10/17 03:29:22;;;;;;;10.10;1.60;;;;;;;13.34;87.13;101359.16;5070330;28;20027;-75
2023/10/17 03:31:58;;;;;;;11.98;1.63;;;;;;;13.37;86.16;101347.94;5054150;28;20051;-76
2023/10/17 03:34:37;;;;;;;8.93;1.13;;;;;;;13.37;85.62;101347.94;5054056;28;20032;-75
2023/10/17 03:40:00;;;;;;;6.03;0.88;;;;;;;13.24;85.63;101340.63;5070369;28;20094;-75
2023/10/17 03:42:44;;;;;;;7.03;1.10;;;;;;;13.56;84.83;101373.38;5069551;28;20493;-74
2023/10/17 03:45:57;;;;;;;8.75;1.27;;;;;;;13.59;83.95;101376.50;5071269;28;20056;-75
2023/10/17 03:47:59;;;;;;;11.15;1.50;;;;;;;13.52;82.48;101381.06;5069037;28;20419;-75
2023/10/17 03:50:31;;;;;;;9.50;1.42;;;;;;;13.44;82.21;101381.22;5040297;28;20025;-76
2023/10/17 03:53:07;;;;;;;6.88;1.38;;;;;;;13.34;82.51;101378.06;5071209;28;20452;-75
2023/10/17 03:55:35;;;;;;;5.88;1.48;;;;;;;13.25;83.77;101382.03;5070838;28;20119;-75
2023/10/17 03:58:08;;;;;;;8.88;1.40;;;;;;;13.25;86.23;101388.25;5070723;28;20118;-76
2023/10/17 04:00:41;;;;;;;11.82;1.80;;;;;;;13.46;85.36;101386.44;5055101;28;20040;-77
2023/10/17 04:03:13;;;;;;;9.52;1.38;;;;;;;13.36;85.35;101386.81;5070781;28;20394;-76
2023/10/17 04:05:39;;;;;;;17.23;2.08;;;;;;;13.35;85.18;101385.16;5055169;28;20025;-76
2023/10/17 04:08:05;;;;;;;12.48;1.60;;;;;;;13.20;84.07;101349.31;5070708;28;20036;-76
2023/10/17 04:10:49;;;;;;;12.27;1.80;;;;;;;13.46;83.60;101379.16;5054036;28;20028;-76
2023/10/17 04:13:34;;;;;;;7.00;1.20;;;;;;;13.54;82.38;101389.81;5042215;28;20044;-74
2023/10/17 04:16:00;;;;;;;11.38;1.67;;;;;;;13.44;82.48;101381.22;5070348;28;20085;-75
2023/10/17 04:18:25;;;;;;;10.25;1.50;;;;;;;13.43;82.10;101384.97;5052979;28;20457;-74
2023/10/17 04:20:58;;;;;;;7.03;1.45;;;;;;;13.37;79.98;101388.50;5053037;28;20407;-75
2023/10/17 04:23:26;;;;;;;10.52;1.25;;;;;;;13.30;78.82;101360.59;5069710;28;20594;-76
2023/10/17 04:25:55;;;;;;;10.10;1.40;;;;;;;13.50;78.40;101383.13;5037242;28;20085;-76
2023/10/17 04:28:26;;;;;;;12.60;1.77;;;;;;;13.57;77.32;101383.97;5071575;28;20016;-75
2023/10/17 04:30:56;;;;;;;10.30;1.77;;;;;;;13.62;77.80;101388.78;5069546;28;20039;-76
2023/10/17 04:33:22;;;;;;;8.43;1.40;;;;;;;13.59;78.19;101372.97;5070133;28;20035;-76
2023/10/17 04:35:47;;;;;;;9.68;1.58;;;;;;;13.47;78.41;101385.41;5072436;28;20036;-75
2023/10/17 04:38:19;;;;;;;8.48;1.70;;;;;;;13.54;79.27;101373.59;5069973;28;20483;-74
2023/10/17 04:46:09;;;;;;;10.10;1.63;;;;;;;13.38;79.95;101384.78;5072504;28;20119;-75
2023/10/17 04:49:06;;;;;;;8.45;1.60;;;;;;;13.49;79.69;101378.75;5071166;28;20025;-77
2023/10/17 04:51:25;;;;;;;10.27;1.27;;;;;;;13.41;81.92;101381.66;5071295;28;20044;-77
2023/10/17 04:53:51;;;;;;;8.98;1.73;;;;;;;13.19;81.71;101345.78;5073195;28;20283;-76
2023/10/17 04:56:24;;;;;;;11.30;1.60;;;;;;;13.01;82.32;101316.63;5075134;28;20044;-77
2023/10/17 04:58:56;;;;;;;13.05;1.88;;;;;;;13.38;81.53;101361.28;5054483;28;20036;-76
2023/10/17 05:01:46;;;;;;;9.30;1.25;;;;;;;13.26;80.85;101335.03;5069539;28;20024;-76
2023/10/17 05:04:33;;;;;;;8.52;1.75;;;;;;;13.54;80.61;101365.47;5055077;28;20036;-77
2023/10/17 06:17:40;;;;;;;12.00;1.42;;;;;;;13.82;80.11;101392.34;5059627;28;20039;-76
2023/10/17 06:20:11;;;;;;;8.27;1.30;;;;;;;13.73;80.42;101373.81;5053329;28;20119;-76
2023/10/17 06:31:10;;;;;;;12.15;1.60;;;;;;;13.81;77.56;101373.63;5078600;28;20092;-77
2023/10/17 06:33:35;;;;;;;13.90;2.10;;;;;;;13.87;76.76;101380.88;5074892;28;20031;-77
2023/10/17 06:36:13;;;;;;;6.50;1.05;;;;;;;13.71;76.90;101365.91;5073045;28;20407;-77
2023/10/17 06:38:51;;;;;;;10.68;1.20;;;;;;;13.79;75.89;101378.41;5074464;28;20031;-77
2023/10/17 06:41:38;;;;;;;5.68;1.05;;;;;;;13.89;74.52;101386.09;5073115;28;20036;-77
2023/10/17 06:44:08;;;;;;;7.22;0.98;;;;;;;13.97;74.06;101381.34;5073650;28;20204;-77
2023/10/17 06:47:17;;;;;;;10.23;1.55;;;;;;;13.82;74.24;101361.75;5070769;28;20039;-77
2023/10/17 06:54:58;;;;;;;14.57;1.58;;;;;;;14.10;72.89;101375.06;5070933;28;20039;-77
2023/10/17 06:57:24;;;;;;;9.88;1.10;;;;;;;13.92;72.05;101351.34;5072849;28;20106;-77
2023/10/17 06:59:54;;;;;;;6.18;1.08;;;;;;;14.01;70.42;101385.28;5077243;28;20495;-77
2023/10/17 07:02:28;;;;;;;11.93;1.75;;;;;;;14.20;68.99;101383.59;5072535;28;20020;-77
2023/10/17 07:04:55;;;;;;;;;;;;;;;14.17;68.19;101383.19;5073794;28;20051;-78
2023/10/17 07:07:24;;;;;;;10.02;1.58;;;;;;;14.15;67.81;101372.59;5071404;28;19912;-77
2023/10/17 07:09:56;;;;;;;12.05;1.35;;;;;;;14.05;67.66;101367.59;5072122;28;20670;-77
2023/10/17 07:12:24;;;;;;;5.82;1.25;;;;;;;13.92;68.74;101377.59;5071967;28;20112;-77
2023/10/17 07:14:51;;;;;;;9.15;1.13;;;;;;;14.05;67.94;101385.72;5055230;28;20123;-77
2023/10/17 07:17:25;;;;;;;7.70;1.13;;;;;;;13.97;67.63;101378.63;5072932;28;20024;-77
2023/10/17 07:19:59;;;;;;;10.03;1.20;;;;;;;14.05;67.76;101374.88;5072864;28;20039;-78
2023/10/17 07:22:25;;;;;;;7.18;1.48;;;;;;;14.08;67.01;101378.00;5056008;28;20028;-77
2023/10/17 07:24:52;;;;;;;8.77;1.30;;;;;;;14.13;67.32;101371.13;5038366;28;20036;-78
2023/10/17 07:27:27;;;;;;;10.38;1.65;;;;;;;14.13;67.62;101380.06;5055452;28;20483;-77
2023/10/17 07:29:58;;;;;;;;;;;;;;;14.27;67.79;101365.50;5057074;28;20498;-78
2023/10/17 07:32:25;;;;;;;11.32;1.60;;;;;;;14.04;68.33;101360.53;5057684;28;19917;-77
2023/10/17 07:34:52;;;;;;;11.82;1.40;;;;;;;14.10;68.09;101373.22;5071951;28;20082;-78
2023/10/17 07:42:45;;;;;;;7.65;1.17;;;;;;;14.29;64.72;101374.22;5051677;28;20399;-77
2023/10/17 07:45:15;;;;;;;7.47;1.27;;;;;;;14.25;64.86;101367.56;5074072;28;20020;-77
2023/10/17 07:47:42;;;;;;;11.50;1.67;;;;;;;14.40;65.17;101377.34;5073663;28;20391;-77
2023/10/17 07:50:15;;;;;;;9.35;1.42;;;;;;;14.36;65.81;101363.41;5072796;28;20028;-77
2023/10/17 07:52:43;;;;;;;10.07;1.63;;;;;;;14.36;66.31;101371.53;5055675;28;20127;-77
2023/10/17 07:55:23;;;;;;;6.22;1.45;;;;;;;14.40;64.89;101361.91;5055182;28;20479;-77
2023/10/17 07:57:52;;;;;;;9.60;1.38;;;;;;;14.17;63.25;101375.94;5056390;28;20418;-77
2023/10/17 08:03:20;;;;;;;8.48;1.50;;;;;;;14.32;63.34;101381.09;5067910;28;20040;-77
2023/10/17 08:06:04;;;;;;;9.82;1.42;;;;;;;14.14;63.78;101359.25;5057033;28;20434;-78
2023/10/17 08:08:33;;;;;;;9.23;1.20;;;;;;;14.30;62.44;101364.22;5074008;28;20088;-77
2023/10/17 08:11:00;;;;;;;8.23;1.17;;;;;;;14.28;62.56;101361.75;5070501;28;20028;-77
2023/10/17 08:13:28;;;;;;;8.27;1.00;;;;;;;14.47;62.30;101364.63;5070630;28;20036;-77
2023/10/17 08:16:04;;;;;;;8.52;1.42;;;;;;;14.22;63.14;101337.41;5054558;28;20060;-77
2023/10/17 08:18:39;;;;;;;8.20;1.42;;;;;;;14.52;63.28;101367.56;5069802;28;20029;-77
2023/10/17 08:23:46;;;;;;;11.30;1.33;;;;;;;14.58;62.59;101374.84;5070665;28;20032;-77
2023/10/17 08:26:13;;;;;;;6.88;0.95;;;;;;;14.54;62.14;101360.91;5037009;28;20460;-77
2023/10/17 08:36:49;;;;;;;5.75;1.00;;;;;;;14.56;62.16;101353.38;5070682;28;20032;-77
2023/10/17 08:42:00;;;;;;;9.27;1.55;;;;;;;14.80;61.77;101353.72;5072087;28;20134;-77
2023/10/17 08:44:31;;;;;;;8.32;1.30;;;;;;;14.75;61.64;101359.81;5070283;28;20030;-77
2023/10/17 08:46:57;;;;;;;9.73;1.50;;;;;;;14.70;60.77;101359.63;5071559;28;20387;-77
2023/10/17 08:49:27;;;;;;;6.25;1.25;;;;;;;14.69;61.05;101338.16;5070062;28;20541;-77
2023/10/17 08:51:54;;;;;;;8.20;1.48;;;;;;;14.96;60.83;101353.25;5070240;28;20025;-77
2023/10/17 08:54:20;;;;;;;7.35;1.45;;;;;;;14.89;60.92;101340.78;5077498;28;20024;-77
2023/10/17 08:56:47;;;;;;;19.88;7.15;;;;;;;15.05;60.98;101351.16;5074358;28;20529;-77
2023/10/17 08:59:15;;;;;;;10.57;3.78;;;;;;;14.99;61.83;101360.13;5053237;28;20025;-77
2023/10/17 09:02:14;;;;;;;11.40;1.83;;;;;;;15.02;62.45;101354.28;5069815;28;20107;-77
2023/10/17 09:04:42;;;;;;;10.73;2.05;;;;;;;15.08;62.67;101360.72;5069855;28;20052;-78
2023/10/17 09:07:09;;;;;;;10.88;1.52;;;;;;;14.85;62.29;101334.97;5053309;28;20051;-78
2023/10/17 09:09:34;;;;;;;8.75;1.40;;;;;;;15.12;62.25;101359.25;5071066;28;20491;-77
2023/10/17 09:12:01;;;;;;;8.85;2.00;;;;;;;15.20;62.23;101365.25;5070036;28;20035;-77
2023/10/17 09:14:29;;;;;;;9.38;1.40;;;;;;;15.17;62.63;101364.88;5069633;28;20097;-77
2023/10/17 09:17:11;;;;;;;9.05;1.60;;;;;;;15.25;62.23;101365.44;5053908;28;20455;-77
2023/10/17 09:19:46;;;;;;;8.93;1.80;;;;;;;15.10;62.67;101354.06;5053911;28;20036;-77
2023/10/17 09:22:15;;;;;;;7.93;1.13;;;;;;;14.97;63.00;101352.22;5053624;28;20062;-77
2023/10/17 09:24:46;;;;;;;5.43;1.08;;;;;;;15.00;62.62;101365.34;5069721;28;20502;-77
2023/10/17 09:27:15;;;;;;;12.30;2.72;;;;;;;14.94;63.04;101341.81;5071541;28;20021;-78
2023/10/17 09:29:51;;;;;;;12.15;4.00;;;;;;;15.10;62.52;101353.19;5054186;28;20131;-78
2023/10/17 09:32:48;;;;;;;13.77;3.20;;;;;;;15.30;61.75;101345.81;5075231;28;20024;-77
2023/10/17 09:35:15;;;;;;;8.52;2.47;;;;;;;15.39;61.64;101343.66;5062760;28;20028;-77
2023/10/17 09:37:44;;;;;;;10.77;1.83;;;;;;;15.20;62.17;101359.00;5074063;28;20036;-77
2023/10/17 09:40:22;;;;;;;9.40;1.63;;;;;;;15.24;61.87;101354.81;5073951;28;20044;-78
2023/10/17 09:42:47;;;;;;;9.20;1.15;;;;;;;15.07;62.41;101364.50;5073676;28;20475;-77
2023/10/17 09:45:15;;;;;;;8.55;1.30;;;;;;;15.16;61.38;101357.75;5073654;28;20033;-77
2023/10/17 09:47:45;;;;;;;7.38;1.00;;;;;;;15.32;60.57;101354.56;5056964;28;20028;-77
2023/10/17 09:50:20;;;;;;;7.05;1.25;;;;;;;15.37;60.01;101351.22;5073502;28;20032;-77
2023/10/17 09:52:48;;;;;;;10.98;1.35;;;;;;;15.45;60.55;101359.06;5057401;28;20029;-77
2023/10/17 09:55:17;;;;;;;8.70;1.25;;;;;;;15.45;60.62;101346.34;5073171;28;20074;-77
2023/10/17 09:57:50;;;;;;;7.78;1.63;;;;;;;15.50;61.56;101334.84;5074063;28;20083;-77
2023/10/17 10:00:38;;;;;;;7.32;1.13;;;;;;;15.31;62.26;101319.53;5074442;28;20035;-77
2023/10/17 10:03:06;;;;;;;9.15;1.13;;;;;;;15.34;62.64;101319.09;5072953;28;20242;-77
2023/10/17 10:05:32;;;;;;;7.57;1.30;;;;;;;15.52;62.28;101328.13;5072863;28;20078;-77
2023/10/17 10:08:33;;;;;;;9.85;1.20;;;;;;;15.25;62.85;101286.81;5073296;28;20028;-77
2023/10/17 10:11:00;;;;;;;9.98;1.80;;;;;;;15.45;63.42;101321.09;5074124;28;20025;-77
2023/10/17 10:13:26;;;;;;;8.48;1.40;;;;;;;15.47;63.15;101317.13;5074085;28;20530;-77
2023/10/17 10:15:52;;;;;;;8.98;1.35;;;;;;;15.43;63.08;101334.91;5056409;28;20029;-77
2023/10/17 10:18:40;;;;;;;7.63;1.50;;;;;;;15.54;63.14;101338.78;5074191;28;20544;-77
2023/10/17 10:21:12;;;;;;;8.95;1.23;;;;;;;15.41;63.76;101336.16;5074099;28;20090;-77
2023/10/17 10:23:42;;;;;;;6.95;1.17;;;;;;;15.26;64.25;101333.72;5072908;28;20072;-78
2023/10/17 10:26:19;;;;;;;7.78;1.45;;;;;;;15.39;64.43;101333.66;5072792;28;20495;-77
2023/10/17 10:28:52;;;;;;;8.98;1.45;;;;;;;15.39;65.24;101330.94;5073140;28;20020;-78
2023/10/17 10:31:21;;;;;;;8.90;1.40;;;;;;;15.42;66.04;101326.97;5074062;28;20020;-77
2023/10/17 10:33:48;;;;;;;9.57;1.90;;;;;;;15.27;66.96;101314.53;5074142;28;20017;-78
2023/10/17 10:36:15;;;;;;;13.45;2.13;;;;;;;15.47;67.10;101321.72;5073958;28;20067;-77
2023/10/17 10:38:41;;;;;;;10.38;1.92;;;;;;;15.59;66.99;101313.69;5072418;28;20409;-77
2023/10/17 10:41:07;;;;;;;12.57;1.60;;;;;;;15.46;68.27;101322.75;5072233;28;20035;-77
2023/10/17 10:43:32;;;;;;;10.52;1.50;;;;;;;15.47;69.12;101332.56;5071841;28;20036;-77
2023/10/17 10:46:00;;;;;;;10.38;1.75;;;;;;;15.30;70.22;101332.25;5072505;28;20033;-77
2023/10/17 10:48:26;;;;;;;8.32;1.25;;;;;;;15.31;70.87;101339.34;5072252;28;20387;-77
2023/10/17 10:50:55;;;;;;;8.70;1.75;;;;;;;15.25;71.62;101334.78;5072481;28;20024;-77
2023/10/17 10:53:33;;;;;;;11.80;1.88;;;;;;;15.48;71.49;101339.66;5073826;28;20020;-77
2023/10/17 10:56:02;;;;;;;11.43;2.30;;;;;;;15.47;72.21;101322.56;5071970;28;20091;-77
2023/10/17 10:58:30;;;;;;;22.23;2.60;;;;;;;15.59;72.58;101319.94;5071921;28;20781;-77
2023/10/17 11:00:58;;;;;;;12.20;1.52;;;;;;;15.44;73.05;101297.75;5072203;28;20029;-77
2023/10/17 11:03:25;;;;;;;8.38;1.65;;;;;;;15.65;72.24;101326.38;5075356;28;20025;-77
2023/10/17 11:06:03;;;;;;;12.18;1.80;;;;;;;15.58;72.33;101317.47;5074589;28;20041;-77
2023/10/17 11:08:39;;;;;;;10.55;2.10;;;;;;;15.61;71.35;101323.28;5072300;28;20119;-77
2023/10/17 11:11:05;;;;;;;17.08;4.60;;;;;;;15.48;71.43;101310.66;5072354;28;20030;-77
2023/10/17 11:13:39;;;;;;;10.60;1.70;;;;;;;15.54;71.42;101295.38;5072141;28;20020;-77
2023/10/17 11:16:06;;;;;;;8.35;1.63;;;;;;;15.51;70.59;101310.22;5072126;28;20024;-77
2023/10/17 11:18:44;;;;;;;11.63;1.73;;;;;;;15.61;70.31;101300.75;5071867;28;20033;-77
2023/10/17 11:21:10;;;;;;;13.40;1.98;;;;;;;15.58;70.68;101303.91;5072177;28;20028;-77
2023/10/17 11:23:41;;;;;;;9.75;1.77;;;;;;;15.65;70.42;101301.97;5071843;28;20430;-78
2023/10/17 11:26:11;;;;;;;10.48;1.90;;;;;;;15.54;71.01;101303.53;5073009;28;20534;-77
2023/10/17 11:28:42;;;;;;;9.93;1.60;;;;;;;15.57;70.11;101294.13;5072988;28;20017;-77
2023/10/17 11:31:13;;;;;;;8.80;1.80;;;;;;;15.66;70.39;101303.63;5071900;28;20040;-77
2023/10/17 11:33:45;;;;;;;10.15;1.90;;;;;;;15.46;71.40;101291.06;5072958;28;20020;-77
2023/10/17 11:36:16;;;;;;;12.32;1.83;;;;;;;15.54;71.71;101295.38;5072857;28;20024;-77
2023/10/17 11:38:43;;;;;;;7.97;1.60;;;;;;;15.49;72.19;101287.06;5071629;28;20032;-77
2023/10/17 11:41:09;;;;;;;9.00;1.90;;;;;;;15.67;71.56;101291.78;5071518;28;20024;-77
2023/10/17 11:43:51;;;;;;;13.13;2.15;;;;;;;15.27;73.99;101281.19;5070811;28;20055;-77
2023/10/17 11:46:37;;;;;;;8.65;1.42;;;;;;;15.40;72.22;101278.38;5070049;28;20025;-77
2023/10/17 11:49:26;;;;;;;15.85;2.42;;;;;;;15.45;72.70;101288.56;5071268;28;20032;-78
2023/10/17 11:52:12;;;;;;;9.73;2.03;;;;;;;15.47;72.01;101294.59;5072299;28;20028;-77
2023/10/17 11:55:00;;;;;;;12.70;1.60;;;;;;;15.62;71.14;101286.13;5070911;28;20032;-77
2023/10/17 11:57:27;;;;;;;5.00;1.08;;;;;;;15.45;71.96;101289.38;5072217;28;20098;-78
2023/10/17 12:02:49;;;;;;;6.90;1.35;;;;;;;15.59;71.42;101298.25;5071512;28;20033;-77
2023/10/17 12:05:19;;;;;;;9.02;1.52;;;;;;;15.71;71.41;101295.69;5072706;28;20447;-77
2023/10/17 12:07:57;;;;;;;12.00;1.75;;;;;;;15.64;71.24;101292.19;5071492;28;20012;-77
2023/10/17 12:10:24;;;;;;;8.88;1.58;;;;;;;15.63;70.77;101282.38;5073438;28;20058;-77
2023/10/17 12:12:52;;;;;;;9.02;1.70;;;;;;;15.81;70.36;101300.63;5073115;28;20032;-77
2023/10/17 12:15:20;;;;;;;11.20;1.90;;;;;;;15.86;70.96;101290.78;5054871;28;20498;-77
2023/10/17 12:17:48;;;;;;;13.75;2.63;;;;;;;15.80;71.39;101291.66;5072058;28;20463;-77
2023/10/17 12:20:13;;;;;;;11.85;1.90;;;;;;;15.84;71.80;101295.59;5070995;28;20085;-78
2023/10/17 12:22:40;;;;;;;9.40;2.17;;;;;;;15.78;72.08;101292.94;5070985;28;20483;-77
2023/10/17 12:25:06;;;;;;;14.52;1.77;;;;;;;15.86;71.74;101287.22;5072048;28;20056;-78
2023/10/17 12:27:32;;;;;;;10.43;1.83;;;;;;;15.85;71.56;101286.38;5070566;28;20055;-77
2023/10/17 12:29:58;;;;;;;12.07;2.05;;;;;;;15.63;72.61;101282.38;5053781;28;20525;-77
2023/10/17 12:32:23;;;;;;;11.65;2.28;;;;;;;15.55;72.92;101283.47;5053639;28;20032;-77
2023/10/17 12:34:49;;;;;;;11.93;2.10;;;;;;;15.62;72.97;101280.72;5053490;28;20025;-77
2023/10/17 12:37:17;;;;;;;10.45;1.70;;;;;;;15.55;73.41;101290.78;5053631;28;20033;-76
2023/10/17 12:39:43;;;;;;;11.75;1.77;;;;;;;15.49;72.85;101260.78;5070465;28;20475;-77
2023/10/17 12:42:10;;;;;;;13.00;2.20;;;;;;;15.71;72.55;101266.69;5070055;28;20506;-77
2023/10/17 12:44:36;;;;;;;11.20;2.20;;;;;;;15.51;73.42;101257.84;5053651;28;20025;-77
2023/10/17 12:47:02;;;;;;;13.77;2.33;;;;;;;15.64;73.83;101263.16;5053569;28;20024;-77
2023/10/17 12:49:28;;;;;;;11.75;2.08;;;;;;;15.66;74.22;101258.41;5053400;28;20039;-77
2023/10/17 12:51:53;;;;;;;11.57;2.58;;;;;;;15.67;74.65;101256.50;5070198;28;20382;-77
2023/10/17 12:54:18;;;;;;;10.68;2.10;;;;;;;15.44;74.54;101238.91;5053337;28;20093;-77
2023/10/17 12:56:44;;;;;;;12.60;1.90;;;;;;;15.51;74.39;101244.28;5053888;28;20591;-77
2023/10/17 12:59:12;;;;;;;12.95;2.45;;;;;;;15.50;74.10;101245.34;5073013;28;20029;-77
2023/10/17 13:01:41;;;;;;;11.32;2.10;;;;;;;15.39;73.72;101244.16;5071280;28;20031;-77
2023/10/17 13:04:09;;;;;;;12.15;1.80;;;;;;;15.44;74.03;101244.34;5070809;28;20166;-77
2023/10/17 13:06:35;;;;;;;16.20;2.72;;;;;;;15.45;73.36;101221.59;5071142;28;20166;-77
2023/10/17 13:09:01;;;;;;;14.48;2.40;;;;;;;15.47;74.21;101216.78;5070377;28;20364;-77
2023/10/17 13:11:27;;;;;;;11.82;1.92;;;;;;;15.35;74.51;101213.13;5070316;28;20260;-77
2023/10/17 13:13:54;;;;;;;10.80;1.88;;;;;;;15.34;74.00;101208.75;5078937;28;20043;-77
2023/10/17 13:16:21;;;;;;;11.63;2.40;;;;;;;15.45;73.62;101199.88;5073588;28;20028;-77
2023/10/17 13:18:47;;;;;;;9.85;1.33;;;;;;;15.38;73.74;101217.28;5053576;28;20402;-77
2023/10/17 13:21:14;;;;;;;13.88;2.75;;;;;;;15.30;74.20;101185.00;5053429;28;20438;-77
2023/10/17 13:23:44;;;;;;;14.20;2.25;;;;;;;15.57;74.08;101207.31;5071530;28;20024;-77
2023/10/17 13:26:15;;;;;;;15.27;2.03;;;;;;;15.34;74.78;101207.94;5067845;28;20135;-77
2023/10/17 13:28:41;;;;;;;10.02;1.60;;;;;;;15.24;75.01;101220.09;5053553;28;20123;-77
2023/10/17 13:31:11;;;;;;;13.77;2.03;;;;;;;15.24;75.73;101205.72;5071179;28;20063;-77
2023/10/17 13:33:38;;;;;;;11.35;2.38;;;;;;;15.08;77.08;101181.84;5069889;28;20052;-77
2023/10/17 13:36:05;;;;;;;13.38;1.90;;;;;;;15.14;77.83;101221.63;5071310;28;20106;-77
2023/10/17 13:38:32;;;;;;;8.07;1.52;;;;;;;14.97;78.08;101203.19;5038596;28;20029;-77